Time;durP1;ratioP1;P1;durP2;ratioP2;P2;SDS_P1;SDS_P2;PMS_P1;PMS_P2;Temp;Humidity;BMP_temperature;BMP_pressure;BME280_temperature;BME280_humidity;BME280_pressure;Samples;Min_cycle;Max_cycle;Signal;HPM_P1;HPM_P2
2022/02/08 00:02:14;;;;;;;5.70;2.60;;;4.10;99.90;;;;;;5032323;28;20208;-68
2022/02/08 00:04:40;;;;;;;5.65;2.75;;;4.10;99.90;;;;;;5031655;28;20720;-68
2022/02/08 00:07:09;;;;;;;7.47;2.60;;;4.10;99.90;;;;;;5031665;28;20200;-68
2022/02/08 00:09:37;;;;;;;3.60;2.35;;;4.00;99.90;;;;;;5031718;28;20295;-68
2022/02/08 00:12:05;;;;;;;5.80;2.67;;;3.90;99.90;;;;;;5031785;28;20216;-67
2022/02/08 00:14:31;;;;;;;5.13;2.33;;;3.80;99.90;;;;;;5031638;28;20220;-67
2022/02/08 00:17:00;;;;;;;4.30;2.40;;;3.70;99.90;;;;;;5031584;28;20227;-66
2022/02/08 00:19:28;;;;;;;6.25;2.80;;;3.70;99.90;;;;;;5032307;28;20204;-66
2022/02/08 00:21:55;;;;;;;4.45;3.00;;;3.70;99.90;;;;;;5035132;28;20212;-66
2022/02/08 00:24:21;;;;;;;9.15;2.60;;;3.70;99.90;;;;;;5034808;28;20224;-66
2022/02/08 00:26:48;;;;;;;4.90;2.97;;;3.80;99.90;;;;;;5035315;28;20231;-66
2022/02/08 00:29:15;;;;;;;7.07;2.55;;;3.80;99.90;;;;;;5035116;28;20290;-66
2022/02/08 00:31:42;;;;;;;4.90;2.65;;;3.80;99.90;;;;;;5035186;28;20219;-66
2022/02/08 00:34:10;;;;;;;7.55;2.70;;;3.80;99.90;;;;;;5034934;28;20223;-66
2022/02/08 00:36:37;;;;;;;3.90;2.67;;;3.90;99.90;;;;;;5034702;28;20220;-67
2022/02/08 00:39:06;;;;;;;7.35;2.70;;;4.00;99.90;;;;;;5034681;28;20240;-67
2022/02/08 00:41:34;;;;;;;7.40;2.20;;;4.00;99.90;;;;;;5034740;28;20688;-67
2022/02/08 00:44:05;;;;;;;6.35;2.35;;;4.00;99.90;;;;;;5034601;28;20204;-67
2022/02/08 00:46:38;;;;;;;3.80;2.28;;;4.10;99.90;;;;;;5035015;28;20274;-68
2022/02/08 00:49:08;;;;;;;5.10;2.35;;;4.10;99.90;;;;;;5034730;28;20893;-68
2022/02/08 00:51:43;;;;;;;4.28;2.72;;;4.20;99.90;;;;;;5034424;28;20559;-68
2022/02/08 00:54:11;;;;;;;3.83;2.45;;;4.30;99.90;;;;;;5034574;28;20208;-68
2022/02/08 00:56:38;;;;;;;5.22;2.25;;;4.30;99.90;;;;;;5034712;28;20235;-68
2022/02/08 00:59:07;;;;;;;5.53;2.50;;;4.20;99.90;;;;;;5034525;28;20299;-68
2022/02/08 01:01:36;;;;;;;4.20;2.67;;;4.30;99.90;;;;;;5034423;28;20674;-69
2022/02/08 01:04:04;;;;;;;3.95;2.38;;;4.30;99.90;;;;;;5034084;28;20592;-68
2022/02/08 01:06:31;;;;;;;6.85;2.40;;;4.40;99.90;;;;;;5034431;28;20561;-69
2022/02/08 01:09:10;;;;;;;4.20;2.17;;;4.30;99.90;;;;;;5034600;28;20226;-69
2022/02/08 01:11:37;;;;;;;4.47;2.20;;;4.40;99.90;;;;;;5034075;28;20689;-68
2022/02/08 01:14:04;;;;;;;4.95;1.98;;;4.40;99.90;;;;;;5034187;28;20293;-68
2022/02/08 01:16:31;;;;;;;2.75;1.60;;;4.50;99.90;;;;;;5033898;28;20781;-67
2022/02/08 01:18:59;;;;;;;3.35;1.65;;;4.50;99.90;;;;;;5034299;28;20214;-68
2022/02/08 01:21:26;;;;;;;4.00;2.10;;;4.50;99.90;;;;;;5034084;28;20211;-68
2022/02/08 01:23:53;;;;;;;3.38;1.83;;;4.60;99.90;;;;;;5034050;28;20215;-68
2022/02/08 01:26:22;;;;;;;2.40;2.20;;;4.60;99.90;;;;;;5033846;28;20315;-68
2022/02/08 01:28:55;;;;;;;3.38;1.98;;;4.60;99.90;;;;;;5033826;28;20211;-68
2022/02/08 01:31:23;;;;;;;4.70;2.00;;;4.60;99.90;;;;;;5033810;28;20220;-68
2022/02/08 01:36:42;;;;;;;4.20;2.15;;;4.50;99.90;;;;;;5034841;28;20250;-68
2022/02/08 01:39:15;;;;;;;4.55;2.08;;;4.50;99.90;;;;;;5035229;28;20208;-68
2022/02/08 01:42:00;;;;;;;2.15;1.80;;;4.50;99.90;;;;;;5034775;28;20244;-67
2022/02/08 01:44:32;;;;;;;2.72;1.52;;;4.50;99.90;;;;;;5034859;28;20319;-68
2022/02/08 01:47:15;;;;;;;4.78;2.03;;;4.50;99.90;;;;;;5035007;28;20246;-67
2022/02/08 01:49:59;;;;;;;4.90;2.00;;;4.50;99.90;;;;;;5034752;28;20258;-68
2022/02/08 01:52:26;;;;;;;3.65;2.08;;;4.60;99.90;;;;;;5034958;28;20203;-67
2022/02/08 01:54:54;;;;;;;6.53;1.92;;;4.60;99.90;;;;;;5034775;28;20220;-68
2022/02/08 01:57:22;;;;;;;6.05;1.80;;;4.60;99.90;;;;;;5034732;28;20250;-68
2022/02/08 01:59:49;;;;;;;4.70;2.53;;;4.70;99.90;;;;;;5034607;28;20204;-68
2022/02/08 02:02:16;;;;;;;1.92;1.73;;;4.70;99.90;;;;;;5034694;28;20208;-68
2022/02/08 02:04:43;;;;;;;3.30;1.88;;;4.70;99.90;;;;;;5034333;28;20230;-67
2022/02/08 02:07:09;;;;;;;3.67;1.80;;;4.70;99.90;;;;;;5034607;28;20289;-68
2022/02/08 02:09:38;;;;;;;4.53;2.00;;;4.70;99.90;;;;;;5034523;28;20208;-68
2022/02/08 02:12:08;;;;;;;5.72;2.00;;;4.70;99.90;;;;;;5034288;28;20216;-68
2022/02/08 02:14:37;;;;;;;5.25;2.08;;;4.70;99.90;;;;;;5034332;28;20220;-68
2022/02/08 02:17:07;;;;;;;5.13;2.72;;;4.70;99.90;;;;;;5034335;28;20290;-68
2022/02/08 02:19:35;;;;;;;4.70;1.80;;;4.70;99.90;;;;;;5034414;28;20235;-68
2022/02/08 02:22:03;;;;;;;3.40;1.45;;;4.80;99.90;;;;;;5034193;28;20254;-68
2022/02/08 02:24:31;;;;;;;3.25;1.67;;;4.80;99.90;;;;;;5034249;28;20220;-68
2022/02/08 02:26:59;;;;;;;4.35;2.15;;;4.90;99.90;;;;;;5034286;28;20621;-68
2022/02/08 02:29:29;;;;;;;4.22;1.65;;;4.90;99.90;;;;;;5034228;28;20575;-68
2022/02/08 02:31:56;;;;;;;4.43;1.90;;;4.90;99.90;;;;;;5034077;28;20212;-68
2022/02/08 02:34:24;;;;;;;4.10;1.83;;;4.90;99.90;;;;;;5034382;28;20224;-68
2022/02/08 02:36:51;;;;;;;3.55;1.85;;;4.90;99.90;;;;;;5033769;28;20315;-68
2022/02/08 02:39:23;;;;;;;2.90;1.80;;;4.90;99.90;;;;;;5034085;28;20211;-68
2022/02/08 02:41:52;;;;;;;3.20;1.73;;;5.00;99.90;;;;;;5033731;28;20204;-68
2022/02/08 02:44:22;;;;;;;2.75;1.80;;;5.00;99.90;;;;;;5033898;28;20721;-67
2022/02/08 02:46:49;;;;;;;2.47;2.00;;;5.00;99.90;;;;;;5033749;28;20204;-68
2022/02/08 02:49:17;;;;;;;3.50;1.70;;;5.00;99.90;;;;;;5033849;28;20210;-68
2022/02/08 02:51:43;;;;;;;5.82;1.70;;;5.00;99.90;;;;;;5033648;28;20210;-68
2022/02/08 02:54:16;;;;;;;6.50;2.00;;;5.10;99.90;;;;;;5033706;28;20239;-68
2022/02/08 02:56:43;;;;;;;3.10;1.70;;;5.10;99.90;;;;;;5033718;28;20227;-68
2022/02/08 02:59:12;;;;;;;2.97;1.60;;;5.20;99.90;;;;;;5033799;28;20294;-68
2022/02/08 03:01:48;;;;;;;3.30;1.83;;;5.20;99.90;;;;;;5033417;28;20260;-68
2022/02/08 03:04:30;;;;;;;4.53;1.73;;;5.20;99.90;;;;;;5033682;28;20204;-68
2022/02/08 03:20:39;;;;;;;6.25;2.10;;;5.40;99.90;;;;;;5032736;28;20673;-67
2022/02/08 03:23:06;;;;;;;4.68;2.17;;;5.40;99.90;;;;;;5033391;28;20693;-68
2022/02/08 03:25:32;;;;;;;2.50;1.70;;;5.40;99.90;;;;;;5033389;28;20323;-68
2022/02/08 03:27:59;;;;;;;3.97;2.08;;;5.40;99.90;;;;;;5033227;28;20200;-68
2022/02/08 03:30:27;;;;;;;4.97;1.60;;;5.40;99.90;;;;;;5033329;28;20230;-68
2022/02/08 03:32:55;;;;;;;6.53;1.85;;;5.40;99.90;;;;;;5033256;28;20202;-67
2022/02/08 03:35:22;;;;;;;6.10;1.83;;;5.40;99.90;;;;;;5033180;28;20223;-68
2022/02/08 03:37:56;;;;;;;4.32;2.08;;;5.30;99.90;;;;;;5033092;28;20251;-68
2022/02/08 03:40:36;;;;;;;6.32;2.20;;;5.30;99.90;;;;;;5033493;28;20286;-68
2022/02/08 03:43:14;;;;;;;4.55;2.20;;;5.30;99.90;;;;;;5033182;28;20718;-67
2022/02/08 03:45:44;;;;;;;2.97;2.08;;;5.30;99.90;;;;;;5033088;28;20228;-68
2022/02/08 03:48:14;;;;;;;4.10;1.90;;;5.20;99.90;;;;;;5033268;28;20201;-68
2022/02/08 03:50:43;;;;;;;2.92;2.67;;;5.10;99.90;;;;;;5032928;28;20200;-68
2022/02/08 03:53:10;;;;;;;6.05;2.60;;;5.10;99.90;;;;;;5033260;28;20299;-68
2022/02/08 03:55:37;;;;;;;3.40;2.03;;;5.00;99.90;;;;;;5035698;28;20656;-68
2022/02/08 03:58:03;;;;;;;3.05;2.00;;;5.10;99.90;;;;;;5037015;28;20228;-68
2022/02/08 04:00:37;;;;;;;2.60;1.70;;;5.00;99.90;;;;;;5036720;28;20294;-68
2022/02/08 04:03:05;;;;;;;4.28;2.00;;;5.00;99.90;;;;;;5036727;28;20188;-68
2022/02/08 04:05:36;;;;;;;5.07;2.20;;;5.00;99.90;;;;;;5036542;28;20274;-67
2022/02/08 04:08:06;;;;;;;3.50;2.17;;;5.00;99.90;;;;;;5036816;28;20204;-67
2022/02/08 04:10:33;;;;;;;4.88;2.78;;;5.00;99.90;;;;;;5036571;28;20227;-68
2022/02/08 04:13:09;;;;;;;5.72;2.03;;;5.00;99.90;;;;;;5036668;28;20295;-67
2022/02/08 04:15:57;;;;;;;4.40;2.15;;;5.00;99.90;;;;;;5036470;28;20318;-67
2022/02/08 04:18:52;;;;;;;5.22;2.10;;;5.00;99.90;;;;;;5036686;28;20315;-68
2022/02/08 04:32:41;;;;;;;4.20;2.28;;;5.00;99.90;;;;;;5036472;28;20559;-68
2022/02/08 04:35:35;;;;;;;3.72;1.92;;;5.10;99.90;;;;;;5036119;28;20311;-68
2022/02/08 04:38:13;;;;;;;8.88;2.33;;;5.10;99.90;;;;;;5036072;28;20231;-68
2022/02/08 04:40:55;;;;;;;3.60;2.35;;;5.10;99.90;;;;;;5036174;28;20188;-68
2022/02/08 04:43:29;;;;;;;5.68;1.90;;;5.00;99.90;;;;;;5036053;28;20569;-68
2022/02/08 04:45:59;;;;;;;5.60;2.00;;;5.10;99.90;;;;;;5036205;28;20232;-67
2022/02/08 04:48:42;;;;;;;5.47;2.00;;;5.00;99.90;;;;;;5036176;28;20208;-68
2022/02/08 04:51:19;;;;;;;4.00;1.63;;;5.00;99.90;;;;;;5035723;28;20204;-68
2022/02/08 04:53:53;;;;;;;2.78;2.13;;;5.00;99.90;;;;;;5036610;28;20208;-68
2022/02/08 04:56:28;;;;;;;4.20;1.80;;;5.00;99.90;;;;;;5035977;28;20220;-67
2022/02/08 04:59:07;;;;;;;2.28;1.60;;;5.00;99.90;;;;;;5036002;28;20211;-68
2022/02/08 05:01:46;;;;;;;3.88;1.90;;;5.00;99.90;;;;;;5035490;28;20224;-68
2022/02/08 05:37:36;;;;;;;6.15;2.65;;;5.10;99.90;;;;;;5035330;28;20247;-68
2022/02/08 05:43:08;;;;;;;7.88;1.88;;;5.20;99.90;;;;;;5035153;28;20669;-68
2022/02/08 05:45:48;;;;;;;4.60;2.10;;;5.20;99.90;;;;;;5034891;28;20314;-68
2022/02/08 05:48:22;;;;;;;2.20;1.92;;;5.20;99.90;;;;;;5035039;28;20215;-68
2022/02/08 05:50:58;;;;;;;6.82;2.20;;;5.20;99.90;;;;;;5034725;28;20210;-68
2022/02/08 05:53:29;;;;;;;4.20;2.25;;;5.20;99.90;;;;;;5034973;28;20547;-67
2022/02/08 05:55:58;;;;;;;6.40;3.38;;;5.30;99.90;;;;;;5034804;28;20259;-67
2022/02/08 05:58:26;;;;;;;4.18;2.00;;;5.30;99.90;;;;;;5034734;28;20228;-67
2022/02/08 06:00:53;;;;;;;3.67;2.08;;;5.20;99.90;;;;;;5034704;28;20295;-67
2022/02/08 06:03:20;;;;;;;4.10;2.33;;;5.20;99.90;;;;;;5034725;28;20303;-68
2022/02/08 06:05:48;;;;;;;2.42;2.00;;;5.30;99.90;;;;;;5034616;28;20327;-68
2022/02/08 06:08:15;;;;;;;4.88;2.38;;;5.30;99.90;;;;;;5034598;28;20600;-67
2022/02/08 06:10:48;;;;;;;4.35;1.85;;;5.30;99.90;;;;;;5034280;28;20705;-68
2022/02/08 06:13:18;;;;;;;4.97;3.05;;;5.40;99.90;;;;;;5034460;28;20625;-68
2022/02/08 06:15:46;;;;;;;3.65;1.80;;;5.40;99.90;;;;;;5034509;28;20228;-68
2022/02/08 06:18:13;;;;;;;3.47;1.88;;;5.40;99.90;;;;;;5033885;28;20216;-68
2022/02/08 06:20:40;;;;;;;3.38;2.10;;;5.40;99.90;;;;;;5034260;28;20290;-68
2022/02/08 06:23:06;;;;;;;3.20;2.10;;;5.50;99.90;;;;;;5034180;28;20663;-67
2022/02/08 06:25:34;;;;;;;3.55;1.98;;;5.40;99.90;;;;;;5034459;28;20615;-68
2022/02/08 06:28:01;;;;;;;3.20;1.70;;;5.40;99.90;;;;;;5034206;28;20205;-68
2022/02/08 06:30:30;;;;;;;6.90;2.80;;;5.40;99.90;;;;;;5034271;28;20208;-68
2022/02/08 06:32:57;;;;;;;5.57;2.50;;;5.40;99.90;;;;;;5034298;28;20226;-68
2022/02/08 06:35:27;;;;;;;6.63;2.30;;;5.40;99.90;;;;;;5033979;28;20638;-68
2022/02/08 06:37:54;;;;;;;4.03;2.25;;;5.40;99.90;;;;;;5034272;28;20224;-67
2022/02/08 06:40:20;;;;;;;4.32;2.70;;;5.40;99.90;;;;;;5033962;28;20227;-68
2022/02/08 06:42:47;;;;;;;3.50;2.40;;;5.40;99.90;;;;;;5034256;28;20235;-68
2022/02/08 06:45:16;;;;;;;3.33;1.90;;;5.50;99.90;;;;;;5034211;28;20270;-68
2022/02/08 06:47:50;;;;;;;4.97;2.45;;;5.50;99.90;;;;;;5034147;28;20291;-68
2022/02/08 06:50:17;;;;;;;3.65;2.42;;;5.50;99.90;;;;;;5034061;28;20208;-67
2022/02/08 06:52:44;;;;;;;4.93;1.80;;;5.50;99.90;;;;;;5034084;28;20210;-68
2022/02/08 06:55:11;;;;;;;10.27;2.65;;;5.50;99.90;;;;;;5033629;28;20224;-68
2022/02/08 06:57:49;;;;;;;4.70;2.17;;;5.50;99.90;;;;;;5033899;28;20251;-67
2022/02/08 07:00:20;;;;;;;5.55;2.67;;;5.40;99.90;;;;;;5033856;28;20207;-68
2022/02/08 07:02:49;;;;;;;2.67;1.83;;;5.50;99.90;;;;;;5033800;28;20211;-67
2022/02/08 07:05:15;;;;;;;5.47;2.25;;;5.50;99.90;;;;;;5033739;28;20250;-68
2022/02/08 07:07:42;;;;;;;5.20;2.65;;;5.60;99.90;;;;;;5033702;28;20207;-68
2022/02/08 07:10:10;;;;;;;2.92;1.80;;;5.60;99.90;;;;;;5033436;28;20283;-68
2022/02/08 07:12:37;;;;;;;6.95;1.90;;;5.70;99.90;;;;;;5033292;28;20234;-68
2022/02/08 07:15:09;;;;;;;4.88;1.70;;;5.80;99.90;;;;;;5041454;28;20314;-68
2022/02/08 07:17:36;;;;;;;8.52;1.95;;;5.90;99.90;;;;;;5032335;28;20227;-68
2022/02/08 07:20:05;;;;;;;7.00;2.28;;;5.90;99.90;;;;;;5032181;28;20846;-68
2022/02/08 07:22:32;;;;;;;4.32;2.08;;;6.00;99.90;;;;;;5032321;28;20219;-68
2022/02/08 07:24:59;;;;;;;3.97;1.80;;;6.00;99.90;;;;;;5032187;28;20586;-68
2022/02/08 07:27:27;;;;;;;3.05;2.38;;;6.10;99.90;;;;;;5031763;28;20202;-68
2022/02/08 07:29:55;;;;;;;4.80;1.95;;;6.10;99.90;;;;;;5035128;28;20208;-68
2022/02/08 07:32:29;;;;;;;6.65;2.58;;;6.10;99.90;;;;;;5036346;28;20210;-68
2022/02/08 07:35:09;;;;;;;4.07;1.88;;;6.10;99.90;;;;;;5036210;28;20598;-68
2022/02/08 07:37:48;;;;;;;5.43;2.50;;;6.10;99.90;;;;;;5035916;28;20207;-68
2022/02/08 07:40:27;;;;;;;4.75;2.40;;;6.20;99.90;;;;;;5036161;28;20257;-68
2022/02/08 07:42:54;;;;;;;5.07;1.95;;;6.30;99.90;;;;;;5036414;28;20580;-68
2022/02/08 07:45:22;;;;;;;5.05;2.20;;;6.30;99.90;;;;;;5036111;28;20593;-68
2022/02/08 07:47:49;;;;;;;7.10;2.30;;;6.40;99.90;;;;;;5035823;28;20226;-68
2022/02/08 07:50:16;;;;;;;5.25;2.00;;;6.40;99.90;;;;;;5035546;28;20208;-68
2022/02/08 07:52:44;;;;;;;7.13;2.40;;;6.40;99.90;;;;;;5036196;28;20299;-68
2022/02/08 07:55:11;;;;;;;2.72;1.75;;;6.40;99.90;;;;;;5035787;28;20714;-68
2022/02/08 07:57:39;;;;;;;5.80;2.67;;;6.40;99.90;;;;;;5035584;28;20214;-68
2022/02/08 08:00:07;;;;;;;5.90;2.30;;;6.30;99.90;;;;;;5035597;28;20204;-68
2022/02/08 08:02:36;;;;;;;5.85;2.22;;;6.40;99.90;;;;;;5035967;28;20200;-68
2022/02/08 08:05:03;;;;;;;4.60;1.95;;;6.50;99.90;;;;;;5035619;28;20228;-68
2022/02/08 08:07:30;;;;;;;6.78;2.20;;;6.60;99.90;;;;;;5035959;28;20300;-68
2022/02/08 08:10:01;;;;;;;3.72;2.03;;;6.70;99.90;;;;;;5035562;28;20584;-68
2022/02/08 08:12:28;;;;;;;6.05;2.70;;;6.70;99.90;;;;;;5036456;28;20216;-68
2022/02/08 08:14:57;;;;;;;2.53;2.30;;;6.90;99.90;;;;;;5036552;28;20228;-69
2022/02/08 08:17:51;;;;;;;4.53;2.13;;;6.90;99.90;;;;;;5036475;28;20200;-68
2022/02/08 08:20:18;;;;;;;3.75;2.15;;;6.90;99.90;;;;;;5036894;28;20208;-69
2022/02/08 08:22:45;;;;;;;2.58;1.80;;;6.90;99.90;;;;;;5036620;28;20208;-69
2022/02/08 08:25:13;;;;;;;5.60;2.20;;;6.90;99.90;;;;;;5036397;28;20314;-69
2022/02/08 08:27:41;;;;;;;3.13;2.03;;;6.90;99.90;;;;;;5036279;28;20206;-68
2022/02/08 08:30:09;;;;;;;9.93;3.00;;;6.90;99.90;;;;;;5036145;28;20192;-68
2022/02/08 08:32:36;;;;;;;5.10;2.08;;;7.00;99.90;;;;;;5036519;28;20215;-69
2022/02/08 08:35:03;;;;;;;4.63;2.00;;;7.00;99.90;;;;;;5036204;28;20224;-69
2022/02/08 08:37:36;;;;;;;4.43;2.03;;;7.10;99.90;;;;;;5036919;28;20238;-69
2022/02/08 08:40:13;;;;;;;8.40;3.67;;;7.10;99.90;;;;;;5035433;28;20208;-69
2022/02/08 08:42:57;;;;;;;5.90;2.80;;;7.20;99.90;;;;;;5036543;28;20208;-69
2022/02/08 08:48:42;;;;;;;5.13;1.60;;;7.30;99.90;;;;;;5036425;28;20203;-69
2022/02/08 08:51:22;;;;;;;4.43;1.90;;;7.40;99.90;;;;;;5035997;28;20212;-69
2022/02/08 08:53:49;;;;;;;4.60;2.00;;;7.50;99.90;;;;;;5036382;28;20258;-69
2022/02/08 08:56:15;;;;;;;4.85;2.42;;;7.50;99.90;;;;;;5035890;28;20227;-69
2022/02/08 08:58:44;;;;;;;9.35;2.10;;;7.50;99.90;;;;;;5035878;28;20320;-69
2022/02/08 09:01:17;;;;;;;4.43;1.92;;;7.50;99.90;;;;;;5035590;28;20230;-69
2022/02/08 09:03:45;;;;;;;9.23;2.20;;;7.40;99.90;;;;;;5035696;28;20291;-69
2022/02/08 09:06:12;;;;;;;5.28;2.03;;;7.40;99.90;;;;;;5035524;28;20234;-69
2022/02/08 09:08:41;;;;;;;3.47;1.80;;;7.40;99.90;;;;;;5035615;28;20247;-69
2022/02/08 09:11:49;;;;;;;3.95;1.95;;;7.40;99.90;;;;;;5035499;28;20208;-69
2022/02/08 09:14:25;;;;;;;3.90;1.92;;;7.50;99.90;;;;;;5036428;28;20208;-69
2022/02/08 09:17:01;;;;;;;7.88;2.17;;;7.60;99.80;;;;;;5035408;28;20234;-69
2022/02/08 09:19:44;;;;;;;5.63;1.95;;;7.60;99.50;;;;;;5035444;28;20250;-69
2022/02/08 09:22:41;;;;;;;3.03;1.95;;;7.50;99.60;;;;;;5035553;28;20208;-69
2022/02/08 09:28:09;;;;;;;3.85;1.67;;;7.30;99.90;;;;;;5035344;28;20232;-69
2022/02/08 09:30:40;;;;;;;6.18;1.95;;;7.30;99.90;;;;;;5035412;28;20208;-68
2022/02/08 09:33:07;;;;;;;4.68;1.50;;;7.30;99.90;;;;;;5035564;28;20204;-69
2022/02/08 09:35:34;;;;;;;4.22;2.05;;;7.30;99.90;;;;;;5035226;28;20220;-69
2022/02/08 09:38:02;;;;;;;4.25;1.80;;;7.30;99.90;;;;;;5035527;28;20566;-69
2022/02/08 09:40:29;;;;;;;3.75;2.08;;;7.30;99.90;;;;;;5035159;28;20207;-69
2022/02/08 09:42:58;;;;;;;14.75;6.35;;;7.30;99.90;;;;;;5035434;28;20211;-69
2022/02/08 09:45:25;;;;;;;6.03;2.45;;;7.40;99.90;;;;;;5035494;28;20597;-69
2022/02/08 09:47:58;;;;;;;4.13;2.35;;;7.40;99.90;;;;;;5035002;28;20725;-69
2022/02/08 09:50:28;;;;;;;3.25;2.20;;;7.50;99.90;;;;;;5034855;28;20258;-69
2022/02/08 09:52:59;;;;;;;4.32;1.67;;;7.50;99.90;;;;;;5034283;28;20200;-69
2022/02/08 09:55:28;;;;;;;4.05;2.83;;;7.50;99.90;;;;;;5034830;28;20690;-69
2022/02/08 09:57:55;;;;;;;5.32;2.10;;;7.50;99.90;;;;;;5034870;28;20204;-69
2022/02/08 10:00:23;;;;;;;2.95;1.85;;;7.60;99.90;;;;;;5034505;28;20224;-69
2022/02/08 10:02:50;;;;;;;6.75;2.15;;;7.60;99.90;;;;;;5034747;28;20204;-69
2022/02/08 10:05:19;;;;;;;4.95;1.90;;;7.60;99.90;;;;;;5034428;28;20236;-68
2022/02/08 10:07:45;;;;;;;3.90;1.52;;;7.80;99.90;;;;;;5034656;28;20212;-69
2022/02/08 10:10:25;;;;;;;4.65;2.15;;;7.80;99.90;;;;;;5034443;28;20200;-69
2022/02/08 10:24:04;;;;;;;11.48;6.38;;;8.40;99.40;;;;;;5030638;28;20201;-69
2022/02/08 10:26:41;;;;;;;4.10;1.55;;;8.60;99.10;;;;;;5034016;28;20205;-68
2022/02/08 10:29:19;;;;;;;5.15;1.90;;;8.70;98.40;;;;;;5034325;28;20274;-69
2022/02/08 10:32:03;;;;;;;4.13;1.92;;;8.80;98.20;;;;;;5034204;28;20254;-69
2022/02/08 10:37:41;;;;;;;4.70;1.50;;;9.00;97.90;;;;;;5034191;28;20681;-69
2022/02/08 10:40:10;;;;;;;3.78;2.00;;;9.10;97.80;;;;;;5033702;28;20724;-68
2022/02/08 10:42:39;;;;;;;4.38;2.10;;;9.20;97.90;;;;;;5034261;28;20574;-69
2022/02/08 10:45:18;;;;;;;2.40;1.60;;;9.50;97.70;;;;;;5033984;28;20231;-69
2022/02/08 10:47:48;;;;;;;3.97;1.88;;;9.70;97.00;;;;;;5034221;28;20200;-69
2022/02/08 10:50:15;;;;;;;2.83;1.60;;;9.80;96.60;;;;;;5033898;28;20295;-68
2022/02/08 10:52:44;;;;;;;4.53;1.60;;;9.60;96.90;;;;;;5033932;28;20298;-69
2022/02/08 10:55:25;;;;;;;2.78;1.88;;;9.40;96.80;;;;;;5033808;28;20236;-69
2022/02/08 10:58:00;;;;;;;6.28;1.67;;;9.40;97.10;;;;;;5033994;28;20192;-69
2022/02/08 11:00:33;;;;;;;5.05;1.90;;;9.40;97.00;;;;;;5033684;28;20233;-69
2022/02/08 11:03:04;;;;;;;3.28;1.60;;;9.40;97.20;;;;;;5033598;28;20214;-69
2022/02/08 11:05:41;;;;;;;6.10;1.67;;;9.30;97.20;;;;;;5033765;28;20228;-69
2022/02/08 11:08:27;;;;;;;2.67;1.63;;;9.30;97.00;;;;;;5034020;28;20192;-69
2022/02/08 11:11:19;;;;;;;2.92;1.60;;;9.40;96.80;;;;;;5033667;28;20204;-69
2022/02/08 11:14:09;;;;;;;2.78;1.52;;;9.50;97.00;;;;;;5033857;28;20247;-69
2022/02/08 11:17:00;;;;;;;4.72;1.73;;;9.60;96.90;;;;;;5034059;28;20204;-69
2022/02/08 11:19:50;;;;;;;4.97;1.50;;;10.00;96.30;;;;;;5033674;28;20636;-69
2022/02/08 11:22:29;;;;;;;2.55;1.65;;;10.60;95.80;;;;;;5033823;28;20212;-69
2022/02/08 11:25:03;;;;;;;3.67;1.83;;;10.80;95.40;;;;;;5033729;28;20620;-69
2022/02/08 11:27:38;;;;;;;3.80;2.00;;;10.80;95.20;;;;;;5033675;28;20214;-69
2022/02/08 11:30:12;;;;;;;5.10;1.50;;;10.70;95.10;;;;;;5033319;28;20263;-69
2022/02/08 11:32:51;;;;;;;5.20;1.90;;;10.70;95.40;;;;;;5033207;28;20204;-69
2022/02/08 11:44:26;;;;;;;5.45;1.70;;;10.60;95.70;;;;;;5033377;28;20195;-69
2022/02/08 11:47:17;;;;;;;4.43;1.60;;;10.70;96.00;;;;;;5033154;28;20191;-69
2022/02/08 11:50:02;;;;;;;2.25;1.45;;;10.90;96.20;;;;;;5033124;28;20287;-68
2022/02/08 11:52:49;;;;;;;1.95;1.40;;;11.00;95.90;;;;;;5033348;28;20207;-69
2022/02/08 11:55:43;;;;;;;3.20;1.60;;;11.10;96.30;;;;;;5033294;28;20278;-69
2022/02/08 11:58:21;;;;;;;4.25;1.77;;;11.20;96.30;;;;;;5033439;28;20258;-69
2022/02/08 12:00:59;;;;;;;3.78;1.63;;;11.40;97.10;;;;;;5033196;28;20224;-69
2022/02/08 12:03:56;;;;;;;1.75;1.27;;;11.50;97.80;;;;;;5033687;28;20204;-69
2022/02/08 12:09:12;;;;;;;2.35;1.27;;;11.60;98.60;;;;;;5031370;28;20189;-69
2022/02/08 12:12:04;;;;;;;3.50;2.30;;;11.50;99.30;;;;;;5033253;28;20270;-68
2022/02/08 12:34:16;;;;;;;2.10;1.40;;;11.80;99.90;;;;;;4994964;28;20216;-69
2022/02/08 12:48:36;;;;;;;3.30;1.40;;;11.80;99.90;;;;;;5036392;28;20228;-69
2022/02/08 12:54:08;;;;;;;2.65;1.00;;;13.10;97.80;;;;;;5025466;28;20188;-69
2022/02/08 12:56:45;;;;;;;4.05;1.13;;;13.30;97.90;;;;;;5035975;28;20287;-69
2022/02/08 12:59:35;;;;;;;1.65;1.00;;;13.30;97.50;;;;;;5036082;28;20585;-69
2022/02/08 13:02:27;;;;;;;1.15;0.95;;;13.10;97.40;;;;;;5035684;28;20303;-69
2022/02/08 13:05:34;;;;;;;1.27;0.90;;;12.60;98.00;;;;;;5035811;28;20282;-69
2022/02/08 14:03:46;;;;;;;9.23;4.32;;;11.40;99.90;;;;;;5034842;28;20562;-69
2022/02/08 14:06:22;;;;;;;2.65;1.30;;;11.40;99.90;;;;;;5034450;28;20314;-69
2022/02/08 14:09:07;;;;;;;1.30;1.10;;;11.30;99.90;;;;;;5034686;28;20219;-69
2022/02/08 14:11:54;;;;;;;1.55;1.00;;;11.20;99.90;;;;;;5034260;28;20630;-69
2022/02/08 14:14:36;;;;;;;2.75;1.25;;;11.20;99.90;;;;;;5034583;28;20208;-69
2022/02/08 14:17:29;;;;;;;2.72;1.30;;;11.20;99.90;;;;;;5034613;28;20189;-69
2022/02/08 14:20:26;;;;;;;1.65;1.27;;;11.20;99.90;;;;;;5034231;28;20246;-68
2022/02/08 14:25:44;;;;;;;1.67;1.10;;;11.20;99.90;;;;;;5011928;28;20312;-69
2022/02/08 14:31:05;;;;;;;5.40;1.70;;;11.30;99.90;;;;;;5034388;28;20199;-68
2022/02/08 14:34:03;;;;;;;5.72;1.63;;;11.30;99.90;;;;;;5034839;28;20203;-69
2022/02/08 14:36:42;;;;;;;3.08;1.00;;;11.30;99.90;;;;;;5034182;28;20208;-69
2022/02/08 15:07:12;;;;;;;2.25;1.33;;;10.90;99.90;;;;;;5033790;28;20187;-69
2022/02/08 15:09:43;;;;;;;1.90;1.20;;;10.80;99.90;;;;;;5033615;28;20204;-68
2022/02/08 15:12:13;;;;;;;2.53;1.25;;;10.90;99.90;;;;;;5033539;28;20234;-69
2022/02/08 15:14:48;;;;;;;3.08;1.42;;;10.80;99.90;;;;;;5033550;28;20228;-69
2022/02/08 15:17:16;;;;;;;4.13;1.30;;;10.90;99.90;;;;;;5033422;28;20188;-69
2022/02/08 15:19:45;;;;;;;3.35;1.25;;;10.80;99.90;;;;;;5033297;28;20231;-68
2022/02/08 15:22:12;;;;;;;2.25;1.20;;;10.70;99.90;;;;;;5033446;28;20688;-69
2022/02/08 15:24:40;;;;;;;2.30;1.30;;;10.60;99.90;;;;;;5033421;28;20224;-69
2022/02/08 15:27:10;;;;;;;2.85;1.23;;;10.50;99.90;;;;;;5033492;28;20254;-69
2022/02/08 15:29:37;;;;;;;1.50;1.00;;;10.50;99.90;;;;;;5033409;28;20200;-68
2022/02/08 15:32:06;;;;;;;1.67;1.23;;;10.60;99.90;;;;;;5033927;28;20613;-70
2022/02/08 15:34:35;;;;;;;2.25;1.30;;;10.60;99.90;;;;;;5033611;28;20721;-69
2022/02/08 15:37:01;;;;;;;2.00;1.20;;;10.60;99.90;;;;;;5033728;28;20311;-69
2022/02/08 15:39:28;;;;;;;2.90;1.45;;;10.60;99.90;;;;;;5033689;28;20227;-69
2022/02/08 15:41:55;;;;;;;1.25;0.98;;;10.60;99.90;;;;;;5033344;28;20295;-68
2022/02/08 15:44:24;;;;;;;1.55;1.15;;;10.50;99.90;;;;;;5033445;28;20291;-69
2022/02/08 15:46:52;;;;;;;3.78;1.15;;;10.50;99.90;;;;;;5033356;28;20208;-69
2022/02/08 15:49:19;;;;;;;1.95;1.00;;;10.50;99.90;;;;;;5033816;28;20258;-69
2022/02/08 15:51:54;;;;;;;2.20;1.20;;;10.50;99.90;;;;;;5037103;28;20210;-69
2022/02/08 15:54:25;;;;;;;1.50;1.25;;;10.60;99.90;;;;;;5037224;28;20294;-69
2022/02/08 15:57:09;;;;;;;3.75;1.80;;;10.60;99.90;;;;;;5037207;28;20188;-69
2022/02/08 16:05:38;;;;;;;1.92;1.30;;;10.40;99.90;;;;;;5036844;28;20287;-69
2022/02/08 16:08:14;;;;;;;3.78;1.60;;;10.30;99.90;;;;;;5036976;28;20203;-69
2022/02/08 16:10:51;;;;;;;2.45;1.40;;;10.30;99.90;;;;;;5036492;28;20200;-69
2022/02/08 16:13:28;;;;;;;3.33;1.40;;;10.40;99.90;;;;;;5036660;28;20307;-69
2022/02/08 16:16:14;;;;;;;1.65;1.42;;;10.40;99.90;;;;;;5036546;28;20705;-69
2022/02/08 16:18:49;;;;;;;2.42;1.50;;;10.40;99.90;;;;;;5036724;28;20212;-69
2022/02/08 16:21:40;;;;;;;1.40;1.10;;;10.40;99.90;;;;;;5036251;28;20259;-69
2022/02/08 16:24:27;;;;;;;2.55;1.50;;;10.40;99.90;;;;;;5036561;28;20208;-69
2022/02/08 16:27:13;;;;;;;3.78;1.40;;;10.30;99.90;;;;;;5036372;28;20188;-69
2022/02/08 16:30:21;;;;;;;2.10;1.20;;;10.20;99.90;;;;;;5036496;28;20298;-68
2022/02/08 16:33:04;;;;;;;2.30;1.52;;;10.20;99.90;;;;;;5036447;28;20204;-68
2022/02/08 16:47:07;;;;;;;3.47;1.90;;;10.10;99.90;;;;;;5036488;28;20543;-69
2022/02/08 16:49:45;;;;;;;2.60;1.50;;;10.20;99.90;;;;;;5036530;28;20204;-69
2022/02/08 16:52:45;;;;;;;4.50;1.60;;;10.30;99.90;;;;;;5035982;28;20283;-69
2022/02/08 16:55:25;;;;;;;2.50;1.67;;;10.30;99.90;;;;;;5035946;28;20318;-69
2022/02/08 16:58:07;;;;;;;2.58;1.50;;;10.30;99.90;;;;;;5036098;28;20247;-69
2022/02/08 17:00:35;;;;;;;3.50;1.58;;;10.30;99.90;;;;;;5035739;28;20232;-69
2022/02/08 17:03:06;;;;;;;2.17;1.65;;;10.30;99.90;;;;;;5035318;28;20290;-69
2022/02/08 17:05:32;;;;;;;3.35;1.90;;;10.20;99.90;;;;;;5035897;28;20227;-69
2022/02/08 17:08:00;;;;;;;5.45;3.60;;;10.30;99.90;;;;;;5035974;28;20200;-69
2022/02/08 17:10:33;;;;;;;4.47;2.30;;;10.20;99.90;;;;;;5035471;28;20246;-69
2022/02/08 17:13:11;;;;;;;4.45;3.53;;;10.30;99.90;;;;;;5035485;28;20280;-69
2022/02/08 17:15:50;;;;;;;10.18;7.10;;;10.30;99.90;;;;;;5035935;28;20228;-69
2022/02/08 17:35:29;;;;;;;3.20;1.67;;;10.40;99.90;;;;;;5010016;28;20315;-70
2022/02/08 17:45:58;;;;;;;4.95;2.95;;;10.50;99.90;;;;;;5035099;28;20785;-69
2022/02/08 17:48:25;;;;;;;5.50;3.58;;;10.40;99.90;;;;;;5035123;28;20223;-69